sensor_id;sensor_type;location;lat;lon;timestamp;pressure;altitude;pressure_sealevel;temperature;humidity
19795;BME280;10057;59.402;17.866;2023-01-30T00:01:58;98052.94;;;5.89;80.10
19795;BME280;10057;59.402;17.866;2023-01-30T00:04:24;98042.41;;;5.89;80.07
19795;BME280;10057;59.402;17.866;2023-01-30T00:06:51;98030.94;;;5.90;80.41
19795;BME280;10057;59.402;17.866;2023-01-30T00:09:18;98017.78;;;5.90;80.21
19795;BME280;10057;59.402;17.866;2023-01-30T00:11:44;98017.91;;;5.88;80.10
19795;BME280;10057;59.402;17.866;2023-01-30T00:14:12;98003.69;;;5.91;80.35
19795;BME280;10057;59.402;17.866;2023-01-30T00:16:38;98005.41;;;5.92;79.87
19795;BME280;10057;59.402;17.866;2023-01-30T00:19:05;98001.00;;;5.92;80.16
19795;BME280;10057;59.402;17.866;2023-01-30T00:21:32;97998.38;;;5.92;80.27
19795;BME280;10057;59.402;17.866;2023-01-30T00:23:59;97986.13;;;5.91;80.05
19795;BME280;10057;59.402;17.866;2023-01-30T00:26:26;97981.72;;;5.92;79.89
19795;BME280;10057;59.402;17.866;2023-01-30T00:28:53;97987.91;;;5.91;80.40
19795;BME280;10057;59.402;17.866;2023-01-30T00:31:19;97981.72;;;5.92;80.28
19795;BME280;10057;59.402;17.866;2023-01-30T00:33:46;97971.19;;;5.92;80.17
19795;BME280;10057;59.402;17.866;2023-01-30T00:36:13;97970.28;;;5.93;80.27
19795;BME280;10057;59.402;17.866;2023-01-30T00:38:40;97965.84;;;5.93;80.60
19795;BME280;10057;59.402;17.866;2023-01-30T00:41:07;97959.63;;;5.94;80.52
19795;BME280;10057;59.402;17.866;2023-01-30T00:43:34;97960.66;;;5.92;80.69
19795;BME280;10057;59.402;17.866;2023-01-30T00:46:29;97956.16;;;5.94;80.39
19795;BME280;10057;59.402;17.866;2023-01-30T00:49:15;97948.28;;;5.94;80.45
19795;BME280;10057;59.402;17.866;2023-01-30T00:51:42;97936.06;;;5.93;80.14
19795;BME280;10057;59.402;17.866;2023-01-30T00:54:08;97933.31;;;5.94;80.54
19795;BME280;10057;59.402;17.866;2023-01-30T00:56:35;97928.94;;;5.95;80.13
19795;BME280;10057;59.402;17.866;2023-01-30T00:59:02;97909.56;;;5.96;80.11
19795;BME280;10057;59.402;17.866;2023-01-30T01:01:28;97888.59;;;5.94;80.46
19795;BME280;10057;59.402;17.866;2023-01-30T01:03:55;97885.88;;;5.96;80.27
19795;BME280;10057;59.402;17.866;2023-01-30T01:06:22;97881.34;;;5.98;80.46
19795;BME280;10057;59.402;17.866;2023-01-30T01:08:49;97858.53;;;5.99;80.41
19795;BME280;10057;59.402;17.866;2023-01-30T01:11:15;97868.13;;;6.00;79.83
19795;BME280;10057;59.402;17.866;2023-01-30T01:13:55;97852.22;;;6.01;79.63
19795;BME280;10057;59.402;17.866;2023-01-30T01:16:23;97851.28;;;6.02;80.21
19795;BME280;10057;59.402;17.866;2023-01-30T01:18:50;97854.84;;;6.01;79.70
19795;BME280;10057;59.402;17.866;2023-01-30T01:21:17;97832.94;;;6.01;80.05
19795;BME280;10057;59.402;17.866;2023-01-30T01:23:54;97833.91;;;6.00;79.96
19795;BME280;10057;59.402;17.866;2023-01-30T01:26:21;97844.44;;;6.00;80.11
19795;BME280;10057;59.402;17.866;2023-01-30T01:28:48;97848.84;;;5.99;79.88
19795;BME280;10057;59.402;17.866;2023-01-30T01:31:19;97840.13;;;5.99;79.74
19795;BME280;10057;59.402;17.866;2023-01-30T01:33:46;97830.53;;;5.98;80.01
19795;BME280;10057;59.402;17.866;2023-01-30T01:36:12;97821.78;;;5.97;80.02
19795;BME280;10057;59.402;17.866;2023-01-30T01:39:00;97815.56;;;5.98;80.08
19795;BME280;10057;59.402;17.866;2023-01-30T01:41:27;97806.00;;;5.97;79.87
19795;BME280;10057;59.402;17.866;2023-01-30T01:44:10;97797.25;;;5.97;79.78
19795;BME280;10057;59.402;17.866;2023-01-30T01:49:28;97788.53;;;5.96;79.41
19795;BME280;10057;59.402;17.866;2023-01-30T01:52:06;97789.47;;;5.95;79.30
19795;BME280;10057;59.402;17.866;2023-01-30T01:54:45;97785.91;;;5.96;79.08
19795;BME280;10057;59.402;17.866;2023-01-30T01:57:25;97786.63;;;5.98;79.71
19795;BME280;10057;59.402;17.866;2023-01-30T02:00:02;97776.22;;;5.97;79.75
19795;BME280;10057;59.402;17.866;2023-01-30T02:02:32;97769.16;;;5.97;79.52
19795;BME280;10057;59.402;17.866;2023-01-30T02:04:59;97765.56;;;5.98;79.12
19795;BME280;10057;59.402;17.866;2023-01-30T02:07:33;97764.00;;;5.96;79.54
19795;BME280;10057;59.402;17.866;2023-01-30T02:10:03;97765.81;;;5.95;79.25
19795;BME280;10057;59.402;17.866;2023-01-30T02:12:31;97764.22;;;5.92;79.26
19795;BME280;10057;59.402;17.866;2023-01-30T02:14:59;97758.16;;;5.90;79.78
19795;BME280;10057;59.402;17.866;2023-01-30T02:17:26;97766.16;;;5.89;79.42
19795;BME280;10057;59.402;17.866;2023-01-30T02:31:09;97744.16;;;5.63;80.55
19795;BME280;10057;59.402;17.866;2023-01-30T02:34:15;97756.59;;;5.61;80.67
19795;BME280;10057;59.402;17.866;2023-01-30T02:45:22;97730.38;;;5.59;80.77
19795;BME280;10057;59.402;17.866;2023-01-30T02:48:09;97728.69;;;5.58;80.80
19795;BME280;10057;59.402;17.866;2023-01-30T02:50:58;97718.91;;;5.60;80.55
19795;BME280;10057;59.402;17.866;2023-01-30T02:53:31;97700.63;;;5.59;80.76
19795;BME280;10057;59.402;17.866;2023-01-30T02:55:59;97703.13;;;5.60;80.68
19795;BME280;10057;59.402;17.866;2023-01-30T02:58:31;97682.09;;;5.60;81.07
19795;BME280;10057;59.402;17.866;2023-01-30T03:03:43;97691.69;;;5.61;80.65
19795;BME280;10057;59.402;17.866;2023-01-30T03:06:43;97690.84;;;5.61;80.48
19795;BME280;10057;59.402;17.866;2023-01-30T03:09:21;97690.94;;;5.59;79.95
19795;BME280;10057;59.402;17.866;2023-01-30T03:15:16;97675.56;;;5.53;79.62
19795;BME280;10057;59.402;17.866;2023-01-30T03:17:46;97676.81;;;5.47;79.59
19795;BME280;10057;59.402;17.866;2023-01-30T03:20:14;97692.66;;;5.46;79.63
19795;BME280;10057;59.402;17.866;2023-01-30T03:22:42;97685.72;;;5.45;79.73
19795;BME280;10057;59.402;17.866;2023-01-30T03:25:11;97655.13;;;5.44;79.35
19795;BME280;10057;59.402;17.866;2023-01-30T03:27:39;97649.97;;;5.42;79.44
19795;BME280;10057;59.402;17.866;2023-01-30T03:30:06;97637.78;;;5.41;79.67
19795;BME280;10057;59.402;17.866;2023-01-30T03:32:33;97656.38;;;5.38;78.80
19795;BME280;10057;59.402;17.866;2023-01-30T03:35:00;97647.84;;;5.35;78.14
19795;BME280;10057;59.402;17.866;2023-01-30T03:37:27;97641.81;;;5.33;78.72
19795;BME280;10057;59.402;17.866;2023-01-30T03:39:54;97635.94;;;5.29;78.02
19795;BME280;10057;59.402;17.866;2023-01-30T03:42:20;97641.38;;;5.26;77.91
19795;BME280;10057;59.402;17.866;2023-01-30T03:44:47;97649.25;;;5.26;77.37
19795;BME280;10057;59.402;17.866;2023-01-30T03:47:14;97638.88;;;5.25;77.11
19795;BME280;10057;59.402;17.866;2023-01-30T03:49:41;97649.50;;;5.23;76.94
19795;BME280;10057;59.402;17.866;2023-01-30T03:52:07;97648.63;;;5.22;76.52
19795;BME280;10057;59.402;17.866;2023-01-30T03:54:34;97651.44;;;5.19;75.70
19795;BME280;10057;59.402;17.866;2023-01-30T03:57:00;97639.25;;;5.18;75.82
19795;BME280;10057;59.402;17.866;2023-01-30T03:59:27;97630.66;;;5.16;75.85
19795;BME280;10057;59.402;17.866;2023-01-30T04:01:54;97633.34;;;5.15;75.49
19795;BME280;10057;59.402;17.866;2023-01-30T04:04:21;97632.63;;;5.13;74.90
19795;BME280;10057;59.402;17.866;2023-01-30T04:06:48;97616.19;;;5.09;75.26
19795;BME280;10057;59.402;17.866;2023-01-30T04:09:15;97633.09;;;5.05;74.58
19795;BME280;10057;59.402;17.866;2023-01-30T04:11:41;97621.84;;;5.03;74.67
19795;BME280;10057;59.402;17.866;2023-01-30T04:14:08;97621.94;;;5.02;74.45
19795;BME280;10057;59.402;17.866;2023-01-30T04:16:35;97618.59;;;4.99;74.54
19795;BME280;10057;59.402;17.866;2023-01-30T04:19:02;97617.94;;;4.96;73.96
19795;BME280;10057;59.402;17.866;2023-01-30T04:21:28;97608.53;;;4.92;74.19
19795;BME280;10057;59.402;17.866;2023-01-30T04:23:55;97620.00;;;4.91;73.85
19795;BME280;10057;59.402;17.866;2023-01-30T04:26:22;97615.78;;;4.88;73.76
19795;BME280;10057;59.402;17.866;2023-01-30T04:28:48;97609.88;;;4.85;74.03
19795;BME280;10057;59.402;17.866;2023-01-30T04:31:15;97603.13;;;4.81;73.62
19795;BME280;10057;59.402;17.866;2023-01-30T04:33:42;97592.94;;;4.76;73.27
19795;BME280;10057;59.402;17.866;2023-01-30T04:36:09;97599.97;;;4.75;73.24
19795;BME280;10057;59.402;17.866;2023-01-30T04:38:37;97602.78;;;4.72;72.95
19795;BME280;10057;59.402;17.866;2023-01-30T04:41:04;97581.97;;;4.69;73.17
19795;BME280;10057;59.402;17.866;2023-01-30T04:43:31;97599.72;;;4.66;72.56
19795;BME280;10057;59.402;17.866;2023-01-30T04:45:58;97589.47;;;4.61;72.68
19795;BME280;10057;59.402;17.866;2023-01-30T04:48:25;97597.56;;;4.58;72.35
19795;BME280;10057;59.402;17.866;2023-01-30T04:50:53;97621.28;;;4.57;72.18
19795;BME280;10057;59.402;17.866;2023-01-30T04:53:21;97582.84;;;4.56;71.90
19795;BME280;10057;59.402;17.866;2023-01-30T04:55:48;97592.59;;;4.54;71.38
19795;BME280;10057;59.402;17.866;2023-01-30T04:58:15;97574.50;;;4.49;71.27
19795;BME280;10057;59.402;17.866;2023-01-30T05:00:42;97579.75;;;4.49;71.09
19795;BME280;10057;59.402;17.866;2023-01-30T05:03:09;97587.81;;;4.46;71.23
19795;BME280;10057;59.402;17.866;2023-01-30T05:05:36;97596.84;;;4.42;71.74
19795;BME280;10057;59.402;17.866;2023-01-30T05:08:03;97577.81;;;4.38;70.95
19795;BME280;10057;59.402;17.866;2023-01-30T05:10:30;97591.13;;;4.35;71.07
19795;BME280;10057;59.402;17.866;2023-01-30T05:13:00;97578.19;;;4.32;70.36
19795;BME280;10057;59.402;17.866;2023-01-30T05:15:27;97583.50;;;4.31;70.30
19795;BME280;10057;59.402;17.866;2023-01-30T05:17:54;97577.53;;;4.28;70.40
19795;BME280;10057;59.402;17.866;2023-01-30T05:20:21;97580.34;;;4.25;70.98
19795;BME280;10057;59.402;17.866;2023-01-30T05:22:47;97581.38;;;4.23;70.07
19795;BME280;10057;59.402;17.866;2023-01-30T05:25:14;97574.63;;;4.19;70.23
19795;BME280;10057;59.402;17.866;2023-01-30T05:27:41;97570.41;;;4.16;70.12
19795;BME280;10057;59.402;17.866;2023-01-30T05:30:08;97567.13;;;4.13;69.91
19795;BME280;10057;59.402;17.866;2023-01-30T05:32:35;97571.72;;;4.09;70.34
19795;BME280;10057;59.402;17.866;2023-01-30T05:35:02;97570.97;;;4.07;70.26
19795;BME280;10057;59.402;17.866;2023-01-30T05:37:29;97566.84;;;4.03;69.90
19795;BME280;10057;59.402;17.866;2023-01-30T05:39:56;97573.03;;;4.02;69.70
19795;BME280;10057;59.402;17.866;2023-01-30T05:42:23;97569.56;;;4.01;69.52
19795;BME280;10057;59.402;17.866;2023-01-30T05:44:49;97573.22;;;3.99;69.94
19795;BME280;10057;59.402;17.866;2023-01-30T05:47:16;97576.00;;;3.96;69.59
19795;BME280;10057;59.402;17.866;2023-01-30T05:49:43;97571.81;;;3.93;69.42
19795;BME280;10057;59.402;17.866;2023-01-30T05:52:09;97574.63;;;3.90;69.38
19795;BME280;10057;59.402;17.866;2023-01-30T05:54:36;97566.84;;;3.89;69.03
19795;BME280;10057;59.402;17.866;2023-01-30T05:57:03;97566.09;;;3.87;68.77
19795;BME280;10057;59.402;17.866;2023-01-30T05:59:29;97563.72;;;3.82;69.35
19795;BME280;10057;59.402;17.866;2023-01-30T06:01:56;97583.88;;;3.82;68.67
19795;BME280;10057;59.402;17.866;2023-01-30T06:04:23;97573.38;;;3.82;68.29
19795;BME280;10057;59.402;17.866;2023-01-30T06:06:50;97569.09;;;3.80;68.81
19795;BME280;10057;59.402;17.866;2023-01-30T06:09:16;97579.94;;;3.74;68.53
19795;BME280;10057;59.402;17.866;2023-01-30T06:11:43;97583.69;;;3.70;68.79
19795;BME280;10057;59.402;17.866;2023-01-30T06:14:10;97590.88;;;3.67;69.05
19795;BME280;10057;59.402;17.866;2023-01-30T06:16:36;97605.00;;;3.64;69.16
19795;BME280;10057;59.402;17.866;2023-01-30T06:19:03;97595.53;;;3.62;68.70
19795;BME280;10057;59.402;17.866;2023-01-30T06:21:30;97592.19;;;3.60;68.83
19795;BME280;10057;59.402;17.866;2023-01-30T06:23:57;97585.16;;;3.60;69.11
19795;BME280;10057;59.402;17.866;2023-01-30T06:26:24;97585.34;;;3.57;68.66
19795;BME280;10057;59.402;17.866;2023-01-30T06:28:50;97581.94;;;3.55;69.02
19795;BME280;10057;59.402;17.866;2023-01-30T06:31:17;97588.13;;;3.54;68.50
19795;BME280;10057;59.402;17.866;2023-01-30T06:33:44;97572.41;;;3.54;68.36
19795;BME280;10057;59.402;17.866;2023-01-30T06:36:11;97582.88;;;3.54;68.48
19795;BME280;10057;59.402;17.866;2023-01-30T06:38:38;97589.06;;;3.53;68.36
19795;BME280;10057;59.402;17.866;2023-01-30T06:41:05;97596.00;;;3.54;68.48
19795;BME280;10057;59.402;17.866;2023-01-30T06:43:32;97609.94;;;3.54;68.25
19795;BME280;10057;59.402;17.866;2023-01-30T06:45:58;97608.91;;;3.57;68.37
19795;BME280;10057;59.402;17.866;2023-01-30T06:48:26;97617.56;;;3.59;68.02
19795;BME280;10057;59.402;17.866;2023-01-30T06:50:52;97620.06;;;3.61;67.71
19795;BME280;10057;59.402;17.866;2023-01-30T06:53:19;97617.78;;;3.54;67.72
19795;BME280;10057;59.402;17.866;2023-01-30T06:55:47;97607.28;;;3.40;68.89
19795;BME280;10057;59.402;17.866;2023-01-30T06:58:14;97604.59;;;3.26;69.49
19795;BME280;10057;59.402;17.866;2023-01-30T07:00:42;97600.91;;;3.14;70.03
19795;BME280;10057;59.402;17.866;2023-01-30T07:03:13;97594.41;;;3.05;70.69
19795;BME280;10057;59.402;17.866;2023-01-30T07:05:41;97597.38;;;2.99;70.94
19795;BME280;10057;59.402;17.866;2023-01-30T07:08:09;97602.44;;;3.02;71.02
19795;BME280;10057;59.402;17.866;2023-01-30T07:10:37;97597.03;;;3.05;70.97
19795;BME280;10057;59.402;17.866;2023-01-30T07:13:04;97594.25;;;3.08;70.68
19795;BME280;10057;59.402;17.866;2023-01-30T07:15:31;97590.41;;;3.14;70.59
19795;BME280;10057;59.402;17.866;2023-01-30T07:17:58;97593.72;;;3.18;70.61
19795;BME280;10057;59.402;17.866;2023-01-30T07:20:25;97581.22;;;3.23;70.20
19795;BME280;10057;59.402;17.866;2023-01-30T07:22:53;97587.00;;;3.28;70.22
19795;BME280;10057;59.402;17.866;2023-01-30T07:25:22;97592.91;;;3.31;70.26
19795;BME280;10057;59.402;17.866;2023-01-30T07:27:58;97589.28;;;3.34;70.26
19795;BME280;10057;59.402;17.866;2023-01-30T07:30:27;97596.13;;;3.37;69.62
19795;BME280;10057;59.402;17.866;2023-01-30T07:32:57;97593.50;;;3.37;69.27
19795;BME280;10057;59.402;17.866;2023-01-30T07:35:27;97603.06;;;3.38;68.68
19795;BME280;10057;59.402;17.866;2023-01-30T07:37:54;97603.06;;;3.38;69.28
19795;BME280;10057;59.402;17.866;2023-01-30T07:40:21;97607.38;;;3.39;68.96
19795;BME280;10057;59.402;17.866;2023-01-30T07:43:14;97611.84;;;3.37;69.13
19795;BME280;10057;59.402;17.866;2023-01-30T07:45:42;97606.50;;;3.38;69.10
19795;BME280;10057;59.402;17.866;2023-01-30T07:48:11;97609.13;;;3.38;69.16
19795;BME280;10057;59.402;17.866;2023-01-30T07:50:38;97600.53;;;3.36;68.97
19795;BME280;10057;59.402;17.866;2023-01-30T07:53:08;97599.59;;;3.37;68.83
19795;BME280;10057;59.402;17.866;2023-01-30T07:55:35;97606.44;;;3.40;69.09
19795;BME280;10057;59.402;17.866;2023-01-30T07:58:02;97611.69;;;3.40;69.00
19795;BME280;10057;59.402;17.866;2023-01-30T08:00:29;97601.03;;;3.43;69.01
19795;BME280;10057;59.402;17.866;2023-01-30T08:02:56;97599.13;;;3.45;68.84
19795;BME280;10057;59.402;17.866;2023-01-30T08:05:23;97603.28;;;3.49;68.73
19795;BME280;10057;59.402;17.866;2023-01-30T08:07:50;97602.19;;;3.53;68.71
19795;BME280;10057;59.402;17.866;2023-01-30T08:10:17;97600.22;;;3.56;68.91
19795;BME280;10057;59.402;17.866;2023-01-30T08:12:44;97598.25;;;3.60;68.73
19795;BME280;10057;59.402;17.866;2023-01-30T08:15:11;97598.09;;;3.63;68.35
19795;BME280;10057;59.402;17.866;2023-01-30T08:17:37;97599.66;;;3.66;68.39
19795;BME280;10057;59.402;17.866;2023-01-30T08:20:05;97601.19;;;3.70;68.56
19795;BME280;10057;59.402;17.866;2023-01-30T08:22:32;97601.09;;;3.71;68.42
19795;BME280;10057;59.402;17.866;2023-01-30T08:24:58;97599.22;;;3.73;67.92
19795;BME280;10057;59.402;17.866;2023-01-30T08:27:25;97598.38;;;3.73;67.50
19795;BME280;10057;59.402;17.866;2023-01-30T08:29:52;97594.00;;;3.73;67.88
19795;BME280;10057;59.402;17.866;2023-01-30T08:32:19;97599.13;;;3.75;67.98
19795;BME280;10057;59.402;17.866;2023-01-30T08:34:46;97601.75;;;3.75;68.01
19795;BME280;10057;59.402;17.866;2023-01-30T08:37:12;97602.69;;;3.74;68.06
19795;BME280;10057;59.402;17.866;2023-01-30T08:39:39;97597.53;;;3.72;67.72
19795;BME280;10057;59.402;17.866;2023-01-30T08:42:06;97600.91;;;3.74;67.64
19795;BME280;10057;59.402;17.866;2023-01-30T08:44:32;97606.16;;;3.74;67.55
19795;BME280;10057;59.402;17.866;2023-01-30T08:46:59;97605.13;;;3.77;67.68
19795;BME280;10057;59.402;17.866;2023-01-30T08:49:26;97590.41;;;3.74;67.67
19795;BME280;10057;59.402;17.866;2023-01-30T08:51:53;97593.63;;;3.79;67.46
19795;BME280;10057;59.402;17.866;2023-01-30T08:54:19;97597.09;;;3.80;67.28
19795;BME280;10057;59.402;17.866;2023-01-30T08:56:46;97600.56;;;3.80;67.29
19795;BME280;10057;59.402;17.866;2023-01-30T08:59:13;97607.47;;;3.82;66.92
19795;BME280;10057;59.402;17.866;2023-01-30T09:01:40;97599.59;;;3.82;66.89
19795;BME280;10057;59.402;17.866;2023-01-30T09:04:06;97593.41;;;3.83;66.77
19795;BME280;10057;59.402;17.866;2023-01-30T09:06:33;97601.22;;;3.84;66.27
19795;BME280;10057;59.402;17.866;2023-01-30T09:09:00;97590.63;;;3.86;66.15
19795;BME280;10057;59.402;17.866;2023-01-30T09:11:27;97580.91;;;3.88;66.70
19795;BME280;10057;59.402;17.866;2023-01-30T09:13:53;97590.44;;;3.89;65.94
19795;BME280;10057;59.402;17.866;2023-01-30T09:16:20;97594.78;;;3.90;66.03
19795;BME280;10057;59.402;17.866;2023-01-30T09:18:47;97588.66;;;3.89;66.02
19795;BME280;10057;59.402;17.866;2023-01-30T09:21:14;97587.75;;;3.90;65.64
19795;BME280;10057;59.402;17.866;2023-01-30T09:23:41;97595.59;;;3.90;65.33
19795;BME280;10057;59.402;17.866;2023-01-30T09:26:07;97601.88;;;3.88;65.58
19795;BME280;10057;59.402;17.866;2023-01-30T09:28:34;97606.28;;;3.87;65.43
19795;BME280;10057;59.402;17.866;2023-01-30T09:31:01;97595.03;;;3.85;65.24
19795;BME280;10057;59.402;17.866;2023-01-30T09:33:29;97598.66;;;3.83;65.43
19795;BME280;10057;59.402;17.866;2023-01-30T09:35:55;97616.28;;;3.80;65.72
19795;BME280;10057;59.402;17.866;2023-01-30T09:38:22;97597.16;;;3.78;65.35
19795;BME280;10057;59.402;17.866;2023-01-30T09:49:03;97603.91;;;3.83;65.27
19795;BME280;10057;59.402;17.866;2023-01-30T09:54:19;97586.44;;;3.83;65.13
19795;BME280;10057;59.402;17.866;2023-01-30T09:57:19;97584.63;;;3.84;65.56
19795;BME280;10057;59.402;17.866;2023-01-30T10:00:11;97588.94;;;3.85;65.08
19795;BME280;10057;59.402;17.866;2023-01-30T10:05:52;97562.16;;;3.94;64.68
19795;BME280;10057;59.402;17.866;2023-01-30T10:11:41;97572.19;;;4.01;64.96
19795;BME280;10057;59.402;17.866;2023-01-30T10:25:55;97582.38;;;4.20;64.17
19795;BME280;10057;59.402;17.866;2023-01-30T10:28:34;97572.66;;;4.22;63.85
19795;BME280;10057;59.402;17.866;2023-01-30T10:31:13;97571.72;;;4.23;63.33
19795;BME280;10057;59.402;17.866;2023-01-30T10:33:57;97576.88;;;4.25;63.64
19795;BME280;10057;59.402;17.866;2023-01-30T10:36:57;97573.22;;;4.27;63.34
19795;BME280;10057;59.402;17.866;2023-01-30T10:39:49;97576.59;;;4.30;62.88
19795;BME280;10057;59.402;17.866;2023-01-30T10:45:17;97569.66;;;4.28;63.23
19795;BME280;10057;59.402;17.866;2023-01-30T10:50:47;97571.53;;;4.26;63.25
19795;BME280;10057;59.402;17.866;2023-01-30T10:53:46;97571.53;;;4.26;63.59
19795;BME280;10057;59.402;17.866;2023-01-30T10:56:21;97576.78;;;4.26;62.63
19795;BME280;10057;59.402;17.866;2023-01-30T10:59:05;97575.09;;;4.25;63.28
19795;BME280;10057;59.402;17.866;2023-01-30T11:01:41;97578.66;;;4.24;62.89
19795;BME280;10057;59.402;17.866;2023-01-30T11:04:29;97580.34;;;4.25;62.58
19795;BME280;10057;59.402;17.866;2023-01-30T11:07:00;97587.25;;;4.26;63.22
19795;BME280;10057;59.402;17.866;2023-01-30T11:12:07;97587.84;;;4.32;63.00
19795;BME280;10057;59.402;17.866;2023-01-30T11:15:00;97599.06;;;4.34;62.48
19795;BME280;10057;59.402;17.866;2023-01-30T11:17:40;97591.97;;;4.36;61.86
19795;BME280;10057;59.402;17.866;2023-01-30T11:20:17;97591.78;;;4.39;62.19
19795;BME280;10057;59.402;17.866;2023-01-30T11:23:04;97594.94;;;4.44;62.65
19795;BME280;10057;59.402;17.866;2023-01-30T11:25:33;97592.13;;;4.47;62.74
19795;BME280;10057;59.402;17.866;2023-01-30T11:28:13;97580.59;;;4.49;62.45
19795;BME280;10057;59.402;17.866;2023-01-30T11:30:43;97596.16;;;4.53;61.95
19795;BME280;10057;59.402;17.866;2023-01-30T11:33:16;97582.00;;;4.55;61.58
19795;BME280;10057;59.402;17.866;2023-01-30T11:35:54;97580.13;;;4.57;61.37
19795;BME280;10057;59.402;17.866;2023-01-30T11:38:27;97577.41;;;4.59;61.43
19795;BME280;10057;59.402;17.866;2023-01-30T11:41:21;97580.88;;;4.59;61.04
19795;BME280;10057;59.402;17.866;2023-01-30T11:43:48;97576.56;;;4.58;60.83
19795;BME280;10057;59.402;17.866;2023-01-30T11:46:19;97578.44;;;4.56;60.61
19795;BME280;10057;59.402;17.866;2023-01-30T11:48:50;97578.50;;;4.55;60.52
19795;BME280;10057;59.402;17.866;2023-01-30T11:51:42;97583.75;;;4.55;60.78
19795;BME280;10057;59.402;17.866;2023-01-30T11:54:16;97579.28;;;4.57;59.98
19795;BME280;10057;59.402;17.866;2023-01-30T11:56:55;97590.44;;;4.60;59.74
19795;BME280;10057;59.402;17.866;2023-01-30T12:01:52;97602.25;;;4.53;60.95
19795;BME280;10057;59.402;17.866;2023-01-30T12:04:27;97597.56;;;4.44;61.20
19795;BME280;10057;59.402;17.866;2023-01-30T12:07:05;97594.75;;;4.33;62.01
19795;BME280;10057;59.402;17.866;2023-01-30T12:09:35;97597.75;;;4.26;62.28
19795;BME280;10057;59.402;17.866;2023-01-30T12:12:34;97602.47;;;4.21;62.34
19795;BME280;10057;59.402;17.866;2023-01-30T12:15:22;97596.56;;;4.18;62.57
19795;BME280;10057;59.402;17.866;2023-01-30T12:21:02;97593.00;;;4.19;62.61
19795;BME280;10057;59.402;17.866;2023-01-30T12:26:17;97580.34;;;4.25;62.56
19795;BME280;10057;59.402;17.866;2023-01-30T12:31:21;97591.31;;;4.32;62.09
19795;BME280;10057;59.402;17.866;2023-01-30T12:33:50;97591.19;;;4.34;61.53
19795;BME280;10057;59.402;17.866;2023-01-30T12:39:03;97596.19;;;4.38;61.82
19795;BME280;10057;59.402;17.866;2023-01-30T12:44:31;97599.28;;;4.45;61.32
19795;BME280;10057;59.402;17.866;2023-01-30T13:03:48;97601.75;;;4.61;60.86
19795;BME280;10057;59.402;17.866;2023-01-30T13:09:57;97620.53;;;4.69;61.01
19795;BME280;10057;59.402;17.866;2023-01-30T13:12:41;97635.03;;;4.74;60.77
19795;BME280;10057;59.402;17.866;2023-01-30T13:25:42;97634.84;;;4.78;58.89
19795;BME280;10057;59.402;17.866;2023-01-30T13:28:15;97633.16;;;4.77;59.40
19795;BME280;10057;59.402;17.866;2023-01-30T13:30:44;97641.03;;;4.77;58.75
19795;BME280;10057;59.402;17.866;2023-01-30T13:33:37;97652.50;;;4.75;59.48
19795;BME280;10057;59.402;17.866;2023-01-30T13:36:21;97666.53;;;4.74;59.60
19795;BME280;10057;59.402;17.866;2023-01-30T13:39:03;97665.81;;;4.72;59.86
19795;BME280;10057;59.402;17.866;2023-01-30T13:41:35;97686.06;;;4.70;59.65
19795;BME280;10057;59.402;17.866;2023-01-30T13:44:31;97687.97;;;4.68;59.84
19795;BME280;10057;59.402;17.866;2023-01-30T13:50:40;97698.72;;;4.64;61.29
19795;BME280;10057;59.402;17.866;2023-01-30T14:07:23;97766.50;;;4.57;63.05
19795;BME280;10057;59.402;17.866;2023-01-30T14:10:10;97783.38;;;4.53;63.86
19795;BME280;10057;59.402;17.866;2023-01-30T14:12:42;97760.03;;;4.48;64.70
19795;BME280;10057;59.402;17.866;2023-01-30T14:20:30;97778.84;;;4.41;65.45
19795;BME280;10057;59.402;17.866;2023-01-30T14:23:04;97771.06;;;4.39;66.24
19795;BME280;10057;59.402;17.866;2023-01-30T14:25:34;97789.56;;;4.38;65.93
19795;BME280;10057;59.402;17.866;2023-01-30T14:35:48;97813.19;;;4.38;66.51
19795;BME280;10057;59.402;17.866;2023-01-30T14:38:36;97822.72;;;4.39;66.67
19795;BME280;10057;59.402;17.866;2023-01-30T14:54:18;97844.38;;;4.42;67.16
19795;BME280;10057;59.402;17.866;2023-01-30T14:57:01;97861.66;;;4.46;67.08
19795;BME280;10057;59.402;17.866;2023-01-30T15:02:05;97868.41;;;4.50;66.87
19795;BME280;10057;59.402;17.866;2023-01-30T15:05:01;97874.44;;;4.53;67.09
19795;BME280;10057;59.402;17.866;2023-01-30T15:07:38;97890.06;;;4.54;66.93
19795;BME280;10057;59.402;17.866;2023-01-30T15:10:20;97892.63;;;4.56;66.83
19795;BME280;10057;59.402;17.866;2023-01-30T15:16:21;97914.47;;;4.56;66.81
19795;BME280;10057;59.402;17.866;2023-01-30T15:19:18;97922.34;;;4.56;66.84
19795;BME280;10057;59.402;17.866;2023-01-30T15:25:02;97924.97;;;4.56;66.80
19795;BME280;10057;59.402;17.866;2023-01-30T15:28:06;97950.22;;;4.59;66.71
19795;BME280;10057;59.402;17.866;2023-01-30T15:33:28;97961.22;;;4.65;66.48
19795;BME280;10057;59.402;17.866;2023-01-30T15:35:58;97970.50;;;4.71;65.90
19795;BME280;10057;59.402;17.866;2023-01-30T15:38:30;97978.13;;;4.75;65.52
19795;BME280;10057;59.402;17.866;2023-01-30T15:41:00;97990.06;;;4.81;65.56
19795;BME280;10057;59.402;17.866;2023-01-30T15:51:34;98018.50;;;4.89;65.76
19795;BME280;10057;59.402;17.866;2023-01-30T15:54:08;98029.78;;;4.91;65.29
19795;BME280;10057;59.402;17.866;2023-01-30T15:56:38;98028.09;;;4.90;65.47
19795;BME280;10057;59.402;17.866;2023-01-30T15:59:06;98049.94;;;4.90;65.33
19795;BME280;10057;59.402;17.866;2023-01-30T16:01:33;98041.91;;;4.93;65.71
19795;BME280;10057;59.402;17.866;2023-01-30T16:04:00;98039.34;;;4.92;65.56
19795;BME280;10057;59.402;17.866;2023-01-30T16:06:35;98060.34;;;4.92;65.40
19795;BME280;10057;59.402;17.866;2023-01-30T16:09:20;98066.38;;;4.94;65.33
19795;BME280;10057;59.402;17.866;2023-01-30T16:11:47;98088.25;;;4.94;65.57
19795;BME280;10057;59.402;17.866;2023-01-30T16:14:18;98081.22;;;4.95;65.35
19795;BME280;10057;59.402;17.866;2023-01-30T16:16:47;98094.34;;;4.95;65.03
19795;BME280;10057;59.402;17.866;2023-01-30T16:19:41;98113.56;;;4.95;65.07